Time;durP1;ratioP1;P1;durP2;ratioP2;P2;SDS_P1;SDS_P2;PMS_P1;PMS_P2;Temp;Humidity;BMP_temperature;BMP_pressure;BME280_temperature;BME280_humidity;BME280_pressure;Samples;Min_cycle;Max_cycle;Signal;HPM_P1;HPM_P2
2022/06/20 00:01:17;;;;;;;4.43;3.33;;;;;;;17.29;67.88;97190.84;5087852;28;20255;-73
2022/06/20 00:03:48;;;;;;;4.87;2.90;;;;;;;17.33;67.66;97196.72;5089303;28;20247;-72
2022/06/20 00:06:18;;;;;;;3.50;3.10;;;;;;;16.99;68.84;97199.06;5071173;28;20288;-72
2022/06/20 00:08:46;;;;;;;3.80;3.50;;;;;;;16.63;70.13;97185.03;5088120;28;20267;-70
2022/06/20 00:11:15;;;;;;;4.13;3.43;;;;;;;16.53;71.01;97186.56;5089178;28;20236;-70
2022/06/20 00:13:46;;;;;;;4.83;3.63;;;;;;;16.56;71.00;97173.28;5087686;28;20196;-70
2022/06/20 00:16:16;;;;;;;4.03;3.63;;;;;;;16.58;70.84;97176.63;5088848;28;20207;-69
2022/06/20 00:18:45;;;;;;;5.33;3.57;;;;;;;16.53;71.31;97176.09;5088021;28;20203;-70
2022/06/20 00:21:21;;;;;;;5.20;3.40;;;;;;;16.46;71.47;97172.22;5088397;28;20197;-70
2022/06/20 00:23:48;;;;;;;4.23;3.70;;;;;;;16.43;71.83;97172.41;5070829;28;20228;-70
2022/06/20 00:26:16;;;;;;;4.80;3.27;;;;;;;16.32;72.35;97167.06;5087150;28;20204;-70
2022/06/20 00:28:44;;;;;;;4.67;3.50;;;;;;;16.59;71.41;97167.88;5089145;28;20591;-70
2022/06/20 00:31:12;;;;;;;3.70;3.40;;;;;;;16.72;70.99;97169.53;5069245;28;20207;-70
2022/06/20 00:33:39;;;;;;;4.70;3.50;;;;;;;16.63;71.50;97166.72;5088746;28;20241;-70
2022/06/20 00:36:07;;;;;;;4.23;3.83;;;;;;;16.54;72.08;97164.72;5087753;28;20193;-70
2022/06/20 00:38:37;;;;;;;4.27;3.87;;;;;;;16.36;72.23;97160.69;5087904;28;20634;-70
2022/06/20 00:41:09;;;;;;;5.73;3.80;;;;;;;16.21;73.11;97159.94;5088482;28;20241;-70
2022/06/20 00:43:40;;;;;;;4.97;4.47;;;;;;;16.17;73.13;97159.31;5087166;28;20599;-70
2022/06/20 00:46:45;;;;;;;4.90;3.70;;;;;;;16.35;71.88;97156.38;5088367;28;20195;-70
2022/06/20 00:49:40;;;;;;;5.03;3.70;;;;;;;16.19;71.91;97146.97;5088176;28;20265;-70
2022/06/20 00:52:28;;;;;;;4.93;4.03;;;;;;;15.99;73.06;97150.03;5086808;28;20237;-70
2022/06/20 00:55:58;;;;;;;5.93;3.63;;;;;;;15.72;74.26;97149.25;5088318;28;20209;-70
2022/06/20 00:58:49;;;;;;;7.77;3.80;;;;;;;15.58;74.32;97149.25;5006012;28;20602;-71
2022/06/20 01:01:38;;;;;;;8.27;3.53;;;;;;;15.45;75.19;97145.78;5086808;28;20201;-69
2022/06/20 01:04:47;;;;;;;5.40;4.00;;;;;;;15.22;76.18;97143.75;5087369;28;20325;-69
2022/06/20 01:07:56;;;;;;;4.53;4.13;;;;;;;15.17;76.00;97138.81;5088506;28;20199;-69
2022/06/20 01:10:46;;;;;;;5.40;4.03;;;;;;;15.18;75.88;97134.44;5086936;28;20208;-69
2022/06/20 01:13:32;;;;;;;6.50;4.07;;;;;;;15.02;75.68;97100.63;5086432;28;20200;-70
2022/06/20 01:16:29;;;;;;;5.67;4.27;;;;;;;15.32;74.59;97137.84;5087934;28;20690;-70
2022/06/20 01:19:34;;;;;;;4.37;3.43;;;;;;;15.41;74.08;97136.44;5087289;28;20204;-70
2022/06/20 01:22:47;;;;;;;5.67;4.10;;;;;;;15.59;73.44;97127.47;5086413;28;20202;-70
2022/06/20 01:25:46;;;;;;;4.00;3.60;;;;;;;15.80;72.15;97126.09;5087762;28;20632;-70
2022/06/20 01:28:42;;;;;;;5.17;3.77;;;;;;;15.69;72.11;97132.91;5087874;28;20249;-70
2022/06/20 01:31:37;;;;;;;5.10;3.93;;;;;;;15.54;72.90;97126.09;5086306;28;20227;-71
2022/06/20 01:34:22;;;;;;;5.13;3.80;;;;;;;15.49;72.83;97121.16;5087367;28;20204;-70
2022/06/20 01:37:25;;;;;;;3.63;3.30;;;;;;;15.50;72.78;97122.00;5087899;28;20261;-70
2022/06/20 01:40:14;;;;;;;4.03;3.53;;;;;;;15.52;72.10;97110.50;5086492;28;20223;-70
2022/06/20 01:43:00;;;;;;;4.63;3.77;;;;;;;15.60;71.85;97115.25;5087471;28;20207;-71
2022/06/20 01:45:57;;;;;;;5.23;4.10;;;;;;;15.74;71.09;97121.25;5087903;28;20211;-70
2022/06/20 01:48:49;;;;;;;6.33;3.93;;;;;;;15.85;70.46;97118.78;5086152;28;20234;-70
2022/06/20 01:51:37;;;;;;;4.87;4.33;;;;;;;15.95;70.02;97122.44;5087081;28;20614;-70
2022/06/20 01:54:28;;;;;;;4.60;3.90;;;;;;;15.90;70.17;97110.63;5087489;28;20199;-70
2022/06/20 01:57:16;;;;;;;4.83;3.60;;;;;;;16.17;70.05;97116.66;5086058;28;20587;-70
2022/06/20 02:00:06;;;;;;;6.43;4.23;;;;;;;16.16;70.50;97118.44;5087716;28;20814;-70
2022/06/20 02:02:58;;;;;;;3.60;3.30;;;;;;;16.26;70.37;97118.63;5087526;28;20624;-70
2022/06/20 02:05:47;;;;;;;4.77;3.43;;;;;;;16.30;69.68;97114.88;5085915;28;20203;-71
2022/06/20 02:08:36;;;;;;;4.17;3.43;;;;;;;16.37;68.81;97104.84;5087384;28;20695;-71
2022/06/20 02:11:32;;;;;;;6.03;4.27;;;;;;;16.29;69.00;97097.53;5087297;28;20203;-71
2022/06/20 02:14:29;;;;;;;7.03;4.43;;;;;;;16.23;68.84;97098.78;5086020;28;20223;-72
2022/06/20 02:17:20;;;;;;;5.80;3.97;;;;;;;16.00;69.45;97091.66;5087528;28;20211;-71
2022/06/20 02:20:12;;;;;;;4.77;3.87;;;;;;;16.03;69.43;97096.66;5087268;28;20687;-71
2022/06/20 02:22:59;;;;;;;5.33;4.27;;;;;;;16.18;68.76;97085.19;5087357;28;20223;-69
2022/06/20 02:25:48;;;;;;;5.63;3.93;;;;;;;16.16;68.93;97092.28;5091567;28;20203;-71
2022/06/20 02:28:40;;;;;;;5.17;3.70;;;;;;;15.94;69.54;97089.44;5092022;28;20699;-71
2022/06/20 02:31:27;;;;;;;4.43;3.80;;;;;;;15.88;69.22;97089.84;5091397;28;20208;-71
2022/06/20 02:34:12;;;;;;;5.80;4.17;;;;;;;15.96;69.41;97087.56;5091512;28;20213;-72
2022/06/20 02:37:03;;;;;;;5.97;4.10;;;;;;;16.11;69.19;97086.56;5093074;28;20208;-72
2022/06/20 02:39:54;;;;;;;6.07;4.33;;;;;;;16.12;68.99;97096.06;5093887;28;20337;-72
2022/06/20 02:43:04;;;;;;;5.37;3.77;;;;;;;16.01;69.22;97093.31;5097460;28;20199;-72
2022/06/20 02:45:53;;;;;;;5.80;4.27;;;;;;;15.66;70.18;97092.16;5095894;28;20200;-71
2022/06/20 02:48:43;;;;;;;5.17;4.43;;;;;;;15.54;70.81;97084.31;5091666;28;20717;-70
2022/06/20 02:51:34;;;;;;;5.73;4.60;;;;;;;15.58;70.53;97093.63;5091638;28;20263;-71
2022/06/20 02:54:28;;;;;;;4.43;4.03;;;;;;;15.74;70.02;97089.94;5091188;28;20682;-70
2022/06/20 02:57:33;;;;;;;5.40;4.10;;;;;;;15.66;70.33;97096.59;5089384;28;20203;-71
2022/06/20 03:00:25;;;;;;;7.60;4.70;;;;;;;15.75;69.47;97093.34;5091080;28;20212;-72
2022/06/20 03:03:20;;;;;;;4.50;4.00;;;;;;;15.75;69.70;97085.53;5090714;28;20334;-72
2022/06/20 03:06:11;;;;;;;4.60;3.90;;;;;;;15.79;69.32;97072.16;5089255;28;20259;-71
2022/06/20 03:08:58;;;;;;;7.10;4.50;;;;;;;15.62;69.59;97085.47;5090590;28;20203;-70
2022/06/20 03:11:44;;;;;;;5.13;4.30;;;;;;;15.21;71.34;97084.66;5090317;28;20204;-71
2022/06/20 03:14:33;;;;;;;4.57;4.07;;;;;;;15.16;72.10;97091.94;5089236;28;20246;-70
2022/06/20 03:17:20;;;;;;;5.30;3.67;;;;;;;15.00;72.23;97088.63;5090182;28;20208;-69
2022/06/20 03:20:13;;;;;;;5.83;4.47;;;;;;;14.90;72.88;97084.94;5089799;28;20211;-69
2022/06/20 03:23:14;;;;;;;4.30;4.00;;;;;;;14.65;73.75;97081.19;5081314;28;20224;-69
2022/06/20 03:26:03;;;;;;;4.13;3.70;;;;;;;14.55;74.10;97087.06;5070112;28;20211;-71
2022/06/20 03:28:48;;;;;;;4.60;4.07;;;;;;;14.46;74.54;97092.84;5080861;28;20753;-70
2022/06/20 03:31:34;;;;;;;5.23;3.87;;;;;;;14.73;74.09;97088.56;5068163;28;20254;-70
2022/06/20 03:34:21;;;;;;;6.50;4.00;;;;;;;14.82;73.33;97080.16;5069195;28;20573;-70
2022/06/20 03:37:07;;;;;;;5.23;3.90;;;;;;;14.77;73.77;97084.84;5069220;28;20208;-69
2022/06/20 03:39:53;;;;;;;4.40;4.00;;;;;;;14.69;74.36;97082.69;5068494;28;20575;-70
2022/06/20 03:42:39;;;;;;;3.90;3.57;;;;;;;14.65;74.18;97076.00;5069873;28;20208;-69
2022/06/20 03:45:31;;;;;;;4.50;4.03;;;;;;;14.94;74.15;97074.19;5068005;28;20254;-70
2022/06/20 03:48:21;;;;;;;6.13;3.93;;;;;;;15.89;70.67;97077.63;5068622;28;20219;-70
2022/06/20 03:51:21;;;;;;;4.17;3.60;;;;;;;16.36;68.31;97074.44;5069653;28;20592;-69
2022/06/20 03:54:18;;;;;;;4.53;3.70;;;;;;;16.52;67.79;97078.56;5067823;28;20205;-70
2022/06/20 03:57:21;;;;;;;6.13;3.90;;;;;;;16.86;66.75;97082.25;5068246;28;20197;-70
2022/06/20 04:00:11;;;;;;;5.13;4.20;;;;;;;17.06;66.23;97073.88;5069190;28;20234;-71
2022/06/20 04:03:22;;;;;;;4.90;4.00;;;;;;;17.65;64.55;97083.50;5068757;28;20259;-70
2022/06/20 04:06:17;;;;;;;4.13;3.73;;;;;;;18.31;62.20;97076.81;5072389;28;20633;-70
2022/06/20 04:12:54;;;;;;;4.70;3.90;;;;;;;18.65;61.21;97076.75;5068946;28;20231;-71
2022/06/20 04:15:48;;;;;;;4.47;4.00;;;;;;;18.93;60.20;97080.72;5067460;28;20207;-70
2022/06/20 04:19:06;;;;;;;7.10;5.77;;;;;;;18.69;61.25;97077.38;5067718;28;20191;-69
2022/06/20 04:21:56;;;;;;;7.07;4.33;;;;;;;19.05;59.78;97060.53;5053373;28;20293;-70
2022/06/20 04:25:01;;;;;;;6.53;5.93;;;;;;;19.33;59.11;97073.16;5067684;28;20235;-70
2022/06/20 04:27:58;;;;;;;4.93;4.17;;;;;;;18.93;60.48;97064.97;5066768;28;20357;-70
2022/06/20 04:30:51;;;;;;;5.17;4.67;;;;;;;18.87;61.01;97069.84;5053554;28;20757;-70
2022/06/20 04:33:45;;;;;;;6.13;4.07;;;;;;;18.91;61.76;97072.13;5068262;28;20398;-70
2022/06/20 04:36:48;;;;;;;7.57;4.57;;;;;;;18.95;61.79;97068.28;5066624;28;20200;-70
2022/06/20 04:39:39;;;;;;;5.07;4.17;;;;;;;19.20;61.12;97077.69;5068065;28;20982;-70
2022/06/20 04:42:39;;;;;;;8.73;4.57;;;;;;;19.30;61.31;97074.22;5067919;28;20279;-70
2022/06/20 04:45:32;;;;;;;10.87;4.40;;;;;;;19.15;61.92;97064.94;5066163;28;20303;-71
2022/06/20 04:48:20;;;;;;;7.93;4.33;;;;;;;19.65;61.00;97062.69;5067980;28;20220;-71
2022/06/20 04:51:13;;;;;;;6.63;4.20;;;;;;;19.90;60.22;97068.44;5068125;28;20215;-71
2022/06/20 04:53:59;;;;;;;5.37;3.90;;;;;;;19.91;60.50;97071.88;5066473;28;20626;-71
2022/06/20 04:56:47;;;;;;;5.90;3.80;;;;;;;20.12;59.64;97064.84;5067929;28;20210;-70
2022/06/20 04:59:33;;;;;;;3.97;3.67;;;;;;;20.51;58.19;97053.63;5052481;28;20210;-71
2022/06/20 05:02:22;;;;;;;4.57;3.43;;;;;;;20.49;58.12;97054.72;5066338;28;20210;-71
2022/06/20 05:05:18;;;;;;;4.73;3.30;;;;;;;20.58;58.05;97065.31;5067975;28;20223;-71
2022/06/20 05:08:09;;;;;;;3.93;3.53;;;;;;;20.76;57.39;97058.47;5067471;28;20196;-71
2022/06/20 05:11:03;;;;;;;4.03;3.70;;;;;;;20.75;57.66;97056.78;5065813;28;20200;-70
2022/06/20 05:14:03;;;;;;;4.53;3.80;;;;;;;21.18;56.64;97059.22;5067549;28;20235;-71
2022/06/20 05:16:52;;;;;;;4.07;3.60;;;;;;;21.51;54.78;97043.06;5067641;28;20577;-71
2022/06/20 05:19:44;;;;;;;6.00;3.90;;;;;;;21.69;55.05;97053.72;5066154;28;20229;-70
2022/06/20 05:22:33;;;;;;;5.90;3.47;;;;;;;21.92;54.69;97056.97;5067098;28;20574;-71
2022/06/20 05:25:23;;;;;;;5.00;3.93;;;;;;;22.32;54.30;97037.31;5067065;28;20202;-71
2022/06/20 05:28:13;;;;;;;3.97;3.57;;;;;;;22.80;51.99;97050.41;5065641;28;20197;-70
2022/06/20 05:31:01;;;;;;;3.43;3.07;;;;;;;23.10;50.42;97051.97;5067168;28;20198;-71
2022/06/20 05:34:10;;;;;;;6.53;3.43;;;;;;;23.04;50.41;97049.91;5066900;28;20629;-72
2022/06/20 05:37:03;;;;;;;4.83;3.40;;;;;;;22.92;50.98;97048.41;5065967;28;20552;-72
2022/06/20 05:39:54;;;;;;;3.73;3.30;;;;;;;23.42;50.64;97044.44;5067325;28;20193;-72
2022/06/20 05:42:21;;;;;;;6.93;3.70;;;;;;;23.71;49.90;97039.78;5066792;28;20194;-72
2022/06/20 05:44:48;;;;;;;7.40;3.77;;;;;;;23.98;48.92;97036.19;5066204;28;20265;-72
2022/06/20 05:47:31;;;;;;;5.10;3.33;;;;;;;24.13;48.31;97043.47;5067077;28;20724;-71
2022/06/20 05:50:22;;;;;;;4.57;3.30;;;;;;;23.99;48.87;97030.75;5047397;28;20677;-72
2022/06/20 05:52:51;;;;;;;3.30;3.00;;;;;;;23.91;49.06;97035.13;5066916;28;20694;-73
2022/06/20 05:55:24;;;;;;;4.83;3.30;;;;;;;23.82;48.77;97025.50;5066801;28;20712;-72
2022/06/20 05:57:56;;;;;;;6.60;3.13;;;;;;;23.79;49.46;97034.56;5069362;28;20218;-71
2022/06/20 06:00:33;;;;;;;4.83;3.27;;;;;;;23.56;48.23;97017.47;5070646;28;20255;-69
2022/06/20 06:03:10;;;;;;;5.97;4.23;;;;;;;23.88;48.49;97032.81;5069522;28;20212;-70
2022/06/20 06:05:47;;;;;;;4.77;3.30;;;;;;;24.27;47.45;97025.38;5053256;28;20216;-70
2022/06/20 06:08:24;;;;;;;4.30;2.90;;;;;;;24.42;47.11;97029.13;5052391;28;20194;-73
2022/06/20 06:11:40;;;;;;;3.83;2.60;;;;;;;24.43;47.25;97022.84;5068872;28;20744;-70
2022/06/20 06:14:39;;;;;;;5.77;3.50;;;;;;;24.77;46.43;97019.25;5061485;28;20544;-71
2022/06/20 06:17:27;;;;;;;8.10;5.03;;;;;;;24.99;45.72;97008.09;5070020;28;20195;-72
2022/06/20 06:20:18;;;;;;;4.17;2.90;;;;;;;25.04;45.06;97004.94;5051207;28;20259;-72
2022/06/20 06:22:49;;;;;;;4.37;3.97;;;;;;;25.34;44.79;97015.00;5052342;28;20231;-71
2022/06/20 06:25:27;;;;;;;5.77;3.53;;;;;;;25.37;44.84;97003.25;5051641;28;20204;-71
2022/06/20 06:28:15;;;;;;;3.30;2.67;;;;;;;25.19;44.51;97006.00;5069375;28;20208;-72
2022/06/20 06:30:52;;;;;;;5.50;3.30;;;;;;;25.41;43.51;97010.72;5070429;28;20207;-70
2022/06/20 06:33:29;;;;;;;3.57;3.27;;;;;;;25.44;43.95;97002.47;5068833;28;20250;-73
2022/06/20 06:36:09;;;;;;;9.97;4.50;;;;;;;25.61;43.00;96998.84;5069630;28;20196;-71
2022/06/20 06:38:53;;;;;;;6.77;4.27;;;;;;;25.97;42.82;96993.22;5069759;28;20197;-72
2022/06/20 06:41:32;;;;;;;4.93;3.17;;;;;;;25.88;42.36;96999.53;5050636;28;20198;-72
2022/06/20 06:44:02;;;;;;;4.63;3.43;;;;;;;25.82;42.23;96987.75;5070004;28;20201;-73
2022/06/20 06:46:39;;;;;;;5.70;2.90;;;;;;;25.58;42.58;96993.03;5050342;28;20229;-71
2022/06/20 06:49:21;;;;;;;5.73;3.03;;;;;;;25.63;42.34;96988.91;5069533;28;20201;-72
2022/06/20 06:52:09;;;;;;;5.10;3.30;;;;;;;25.70;41.72;96973.97;5069792;28;20235;-71
2022/06/20 06:54:49;;;;;;;17.40;3.40;;;;;;;25.80;41.46;96987.91;5068088;28;20648;-71
2022/06/20 06:57:40;;;;;;;4.63;3.47;;;;;;;26.05;41.40;96977.31;5070174;28;20196;-72
2022/06/20 07:00:08;;;;;;;3.13;2.60;;;;;;;25.98;42.42;96978.97;5051403;28;20204;-72
2022/06/20 07:02:40;;;;;;;3.33;3.10;;;;;;;25.84;43.04;96977.81;5068557;28;20189;-73
2022/06/20 07:05:15;;;;;;;4.90;3.87;;;;;;;25.76;41.85;96965.34;5069423;28;20193;-72
2022/06/20 07:08:17;;;;;;;4.30;3.23;;;;;;;26.14;41.59;96974.50;5067431;28;20193;-71
2022/06/20 07:10:47;;;;;;;4.50;2.60;;;;;;;26.39;41.60;96962.00;5069246;28;20200;-73
2022/06/20 07:13:47;;;;;;;4.63;2.30;;;;;;;26.39;40.15;96965.50;5069121;28;20229;-72
2022/06/20 07:16:35;;;;;;;2.17;2.03;;;;;;;26.24;38.91;96958.38;5046843;28;20209;-73
2022/06/20 07:19:05;;;;;;;2.47;2.00;;;;;;;26.56;38.67;96963.63;5069075;28;20215;-72
2022/06/20 07:21:33;;;;;;;3.93;2.47;;;;;;;26.72;37.85;96958.28;5050256;28;20232;-73
2022/06/20 07:24:08;;;;;;;2.40;2.07;;;;;;;26.85;37.21;96953.25;5068232;28;20709;-72
2022/06/20 07:26:46;;;;;;;3.63;2.70;;;;;;;27.03;37.85;96951.16;5069278;28;20629;-72
2022/06/20 07:29:19;;;;;;;2.73;2.30;;;;;;;27.15;36.78;96949.78;5067773;28;20284;-73
2022/06/20 07:31:52;;;;;;;6.47;2.40;;;;;;;27.17;36.45;96950.41;5069032;28;20232;-72
2022/06/20 07:34:33;;;;;;;2.90;1.93;;;;;;;26.85;35.50;96947.94;5067519;28;20224;-72
2022/06/20 07:37:08;;;;;;;5.43;3.00;;;;;;;26.78;37.23;96946.97;5050655;28;20193;-72
2022/06/20 07:39:42;;;;;;;5.23;4.30;;;;;;;27.06;36.73;96948.16;5068690;28;20303;-73
2022/06/20 07:42:25;;;;;;;4.07;2.17;;;;;;;27.16;36.18;96939.97;5067226;28;20197;-72
2022/06/20 07:45:02;;;;;;;7.23;3.00;;;;;;;27.41;32.92;96943.34;5035715;28;20201;-72
2022/06/20 07:47:36;;;;;;;2.33;2.10;;;;;;;27.53;32.75;96926.78;5067521;28;20232;-74
2022/06/20 07:50:11;;;;;;;5.20;1.50;;;;;;;27.34;32.82;96936.06;5068082;28;20200;-73
2022/06/20 07:52:49;;;;;;;3.37;1.90;;;;;;;27.19;33.07;96939.59;5068468;28;20205;-73
2022/06/20 07:55:24;;;;;;;3.33;2.40;;;;;;;27.42;33.89;96932.50;5067146;28;20197;-73
2022/06/20 07:58:26;;;;;;;2.43;2.20;;;;;;;27.64;34.17;96936.16;5050960;28;20255;-72
2022/06/20 08:00:54;;;;;;;4.70;3.03;;;;;;;27.59;34.52;96927.91;5068239;28;20196;-73
2022/06/20 08:03:25;;;;;;;4.23;2.23;;;;;;;27.72;33.78;96926.28;5067146;28;20525;-72
2022/06/20 08:06:00;;;;;;;4.03;2.63;;;;;;;27.94;33.57;96917.44;5050248;28;20197;-72
2022/06/20 08:08:40;;;;;;;2.97;1.90;;;;;;;28.10;33.63;96919.97;5066841;28;20201;-73
2022/06/20 08:11:39;;;;;;;4.43;2.00;;;;;;;27.99;33.78;96907.09;5068430;28;20629;-73
2022/06/20 08:14:07;;;;;;;8.77;3.43;;;;;;;28.18;33.77;96914.56;5067569;28;20329;-72
2022/06/20 08:16:35;;;;;;;2.70;2.20;;;;;;;27.92;33.15;96908.81;5066247;28;20198;-72
2022/06/20 08:19:03;;;;;;;5.73;2.90;;;;;;;27.33;33.83;96912.25;5068301;28;20193;-72
2022/06/20 08:21:38;;;;;;;3.10;2.27;;;;;;;27.17;33.85;96910.53;5066432;28;20723;-72
2022/06/20 08:24:28;;;;;;;5.87;2.97;;;;;;;27.40;34.45;96907.91;5067652;28;20681;-73
2022/06/20 08:27:21;;;;;;;2.40;2.20;;;;;;;27.37;34.03;96906.44;5067480;28;20200;-73
2022/06/20 08:30:01;;;;;;;3.20;2.50;;;;;;;27.64;33.11;96901.56;5057999;28;20231;-72
2022/06/20 08:32:59;;;;;;;3.37;3.07;;;;;;;27.42;33.05;96907.72;5067338;28;20313;-72
2022/06/20 08:35:41;;;;;;;4.27;3.03;;;;;;;27.44;33.20;96898.56;5033373;28;20204;-73
2022/06/20 08:38:34;;;;;;;4.40;2.97;;;;;;;27.53;33.18;96873.56;5066150;28;20192;-72
2022/06/20 08:41:10;;;;;;;2.73;2.20;;;;;;;27.95;32.78;96900.44;5067244;28;20193;-72
2022/06/20 08:43:43;;;;;;;2.93;2.00;;;;;;;27.75;33.11;96903.81;5066314;28;20676;-72
2022/06/20 08:46:35;;;;;;;2.40;2.20;;;;;;;27.46;33.91;96903.72;5049093;28;20220;-72
2022/06/20 08:49:25;;;;;;;3.30;2.73;;;;;;;27.73;33.45;96901.34;5067304;28;20197;-72
2022/06/20 08:52:34;;;;;;;6.97;2.73;;;;;;;27.74;33.45;96896.84;5066188;28;20691;-72
2022/06/20 08:55:28;;;;;;;3.00;2.40;;;;;;;27.78;32.89;96908.78;5065943;28;20319;-73
2022/06/20 08:58:07;;;;;;;4.50;2.40;;;;;;;27.81;33.03;96897.75;5049198;28;20684;-73
2022/06/20 09:00:39;;;;;;;5.60;2.67;;;;;;;28.06;33.63;96904.53;5048484;28;20189;-71
2022/06/20 09:03:39;;;;;;;5.10;2.43;;;;;;;28.23;32.32;96906.03;5067496;28;20677;-72
2022/06/20 09:06:18;;;;;;;3.50;1.90;;;;;;;27.85;32.54;96907.03;5066841;28;20296;-72
2022/06/20 09:09:21;;;;;;;2.90;2.00;;;;;;;27.68;32.85;96897.53;5065682;28;20196;-73
2022/06/20 09:11:50;;;;;;;3.30;2.10;;;;;;;27.92;33.15;96905.31;5034406;28;20246;-72
2022/06/20 09:14:20;;;;;;;5.07;4.20;;;;;;;28.32;31.93;96904.94;5066719;28;20236;-73
2022/06/20 09:17:07;;;;;;;7.07;2.90;;;;;;;28.54;31.84;96901.31;5047515;28;20193;-73
2022/06/20 09:20:01;;;;;;;2.43;2.10;;;;;;;28.17;32.98;96896.91;5067239;28;20379;-73
2022/06/20 09:22:47;;;;;;;2.07;1.90;;;;;;;28.42;31.94;96896.69;5066323;28;20232;-72
2022/06/20 09:25:24;;;;;;;1.87;1.73;;;;;;;28.32;31.49;96896.94;5065355;28;20197;-72
2022/06/20 09:27:58;;;;;;;4.23;1.90;;;;;;;28.48;31.96;96899.41;5067186;28;20577;-72
2022/06/20 09:30:49;;;;;;;4.47;2.10;;;;;;;28.66;31.09;96893.75;5065675;28;20216;-72
2022/06/20 09:33:44;;;;;;;3.53;2.40;;;;;;;28.52;31.13;96887.38;5048719;28;20207;-72
2022/06/20 09:36:20;;;;;;;5.43;2.63;;;;;;;28.31;31.39;96858.00;5067728;28;20536;-72
2022/06/20 09:39:08;;;;;;;1.83;1.70;;;;;;;28.40;31.54;96888.03;5066124;28;20787;-73
2022/06/20 09:41:50;;;;;;;3.47;3.00;;;;;;;28.60;31.36;96884.66;5066968;28;20692;-72
2022/06/20 09:44:53;;;;;;;4.63;2.77;;;;;;;28.57;31.47;96890.34;5066214;28;20193;-73
2022/06/20 09:47:32;;;;;;;4.37;2.37;;;;;;;28.42;31.57;96886.81;5065086;28;20607;-72
2022/06/20 09:50:06;;;;;;;4.37;2.00;;;;;;;28.34;31.62;96884.25;5067055;28;20220;-73
2022/06/20 09:53:08;;;;;;;3.10;2.50;;;;;;;28.15;31.35;96890.16;5065594;28;20696;-73
2022/06/20 09:56:05;;;;;;;2.57;2.37;;;;;;;27.49;32.30;96882.09;5058004;28;20204;-73
2022/06/20 09:58:50;;;;;;;5.33;3.17;;;;;;;27.60;32.67;96882.47;5038186;28;20189;-73
2022/06/20 10:01:34;;;;;;;5.10;3.30;;;;;;;27.77;32.73;96875.16;5048133;28;20201;-72
2022/06/20 10:04:32;;;;;;;3.67;2.40;;;;;;;27.80;32.23;96874.81;5065091;28;20193;-73
2022/06/20 10:07:49;;;;;;;4.83;2.63;;;;;;;27.62;32.57;96882.28;5066612;28;20284;-72
2022/06/20 10:10:51;;;;;;;4.23;1.90;;;;;;;27.56;31.76;96878.50;5040414;28;20294;-72
2022/06/20 10:13:30;;;;;;;2.60;1.47;;;;;;;27.57;31.05;96874.88;5064803;28;20204;-72
2022/06/20 10:16:11;;;;;;;2.77;1.80;;;;;;;27.60;31.16;96871.00;5066854;28;20189;-72
2022/06/20 10:18:55;;;;;;;3.17;1.70;;;;;;;27.45;32.46;96870.16;5065422;28;20193;-71
2022/06/20 10:21:37;;;;;;;2.50;1.73;;;;;;;27.78;31.34;96850.22;5046917;28;20239;-72
2022/06/20 10:24:22;;;;;;;3.20;1.77;;;;;;;27.89;31.43;96865.72;5065940;28;20257;-71
2022/06/20 10:27:15;;;;;;;3.93;2.87;;;;;;;28.04;31.17;96855.97;5064960;28;20194;-71
2022/06/20 10:30:03;;;;;;;2.30;1.77;;;;;;;27.87;31.57;96860.59;5047757;28;20267;-72
2022/06/20 10:32:58;;;;;;;3.23;1.80;;;;;;;27.90;31.95;96859.41;5066348;28;20196;-71
2022/06/20 10:35:57;;;;;;;3.83;2.30;;;;;;;28.11;31.42;96854.22;5064961;28;20708;-71
2022/06/20 10:38:38;;;;;;;2.73;2.00;;;;;;;28.57;30.91;96855.69;5065176;28;20243;-72
2022/06/20 10:41:20;;;;;;;3.87;2.03;;;;;;;28.69;30.05;96835.53;5066417;28;20201;-72
2022/06/20 10:44:00;;;;;;;3.73;2.23;;;;;;;28.85;29.75;96858.50;5065172;28;20201;-73
2022/06/20 10:46:36;;;;;;;1.73;1.50;;;;;;;28.75;30.94;96856.13;5069935;28;20288;-73
2022/06/20 10:49:03;;;;;;;1.70;1.60;;;;;;;28.49;30.69;96850.44;5051834;28;20622;-72
2022/06/20 10:51:46;;;;;;;3.90;1.47;;;;;;;28.54;30.51;96847.22;5069169;28;20745;-73
2022/06/20 10:54:31;;;;;;;2.00;1.60;;;;;;;28.51;30.94;96843.09;5051247;28;20286;-72
2022/06/20 10:57:17;;;;;;;1.43;1.33;;;;;;;28.41;30.14;96841.72;5068351;28;20736;-73
2022/06/20 10:59:59;;;;;;;2.83;1.80;;;;;;;28.68;30.15;96833.91;5069125;28;20584;-72
2022/06/20 11:02:41;;;;;;;4.60;2.00;;;;;;;28.84;30.68;96831.00;5069768;28;20632;-72
2022/06/20 11:05:31;;;;;;;1.97;1.57;;;;;;;28.31;30.22;96834.03;5049958;28;20324;-71
2022/06/20 11:08:32;;;;;;;1.63;1.50;;;;;;;27.97;31.40;96839.88;5069834;28;20200;-71
2022/06/20 11:11:08;;;;;;;4.77;1.60;;;;;;;27.90;31.38;96840.78;5051398;28;20196;-73
2022/06/20 11:14:10;;;;;;;3.47;1.70;;;;;;;27.58;31.18;96831.25;5067557;28;20201;-72
2022/06/20 11:16:50;;;;;;;1.70;1.60;;;;;;;27.95;30.91;96835.72;5001012;28;20201;-75
2022/06/20 11:19:17;;;;;;;4.20;1.50;;;;;;;27.89;31.16;96826.63;5068836;28;20571;-73
2022/06/20 11:21:50;;;;;;;2.00;1.40;;;;;;;28.16;30.56;96827.88;5068020;28;20205;-71
2022/06/20 11:24:37;;;;;;;2.63;2.00;;;;;;;28.64;30.22;96826.47;5069589;28;20252;-72
2022/06/20 11:27:21;;;;;;;2.30;1.57;;;;;;;28.85;29.83;96816.66;5078263;28;20200;-72
2022/06/20 11:30:12;;;;;;;2.30;1.80;;;;;;;29.20;29.46;96807.00;5076961;28;20296;-72
2022/06/20 11:36:24;;;;;;;1.50;1.40;;;;;;;28.33;30.11;96813.34;5032307;28;20256;-72
2022/06/20 11:39:17;;;;;;;1.60;1.50;;;;;;;27.51;31.30;96803.75;5080303;28;20203;-70
2022/06/20 11:41:51;;;;;;;5.17;3.33;;;;;;;27.76;31.03;96809.66;5061905;28;20234;-72
2022/06/20 11:44:24;;;;;;;3.77;2.00;;;;;;;27.65;30.41;96810.91;5068890;28;20284;-72
2022/06/20 11:47:18;;;;;;;3.53;1.97;;;;;;;27.54;30.42;96797.22;5070362;28;20579;-72
2022/06/20 11:49:54;;;;;;;3.43;1.77;;;;;;;27.54;31.03;96798.03;5070397;28;20688;-72
2022/06/20 11:52:49;;;;;;;2.67;1.80;;;;;;;27.38;30.97;96801.69;5069861;28;20189;-72
2022/06/20 11:55:48;;;;;;;1.40;1.30;;;;;;;27.65;31.11;96796.78;5069754;28;20229;-72
2022/06/20 11:58:33;;;;;;;2.13;1.97;;;;;;;28.14;30.07;96789.94;5063897;28;20201;-73
2022/06/20 12:01:11;;;;;;;3.70;1.83;;;;;;;28.34;30.30;96790.22;5067452;28;20212;-70
2022/06/20 12:03:53;;;;;;;2.23;2.00;;;;;;;28.73;29.48;96788.84;5050396;28;20195;-73
2022/06/20 12:07:00;;;;;;;3.10;1.50;;;;;;;28.79;28.80;96774.75;5049917;28;20664;-72
2022/06/20 12:09:32;;;;;;;1.80;1.70;;;;;;;28.91;28.69;96775.88;5049678;28;20243;-72
2022/06/20 12:12:14;;;;;;;2.63;1.63;;;;;;;28.86;28.87;96775.66;5068802;28;20574;-73
2022/06/20 12:14:41;;;;;;;3.23;1.57;;;;;;;28.67;28.71;96778.94;5049236;28;21238;-73
2022/06/20 12:17:20;;;;;;;5.43;2.30;;;;;;;28.58;29.21;96764.09;5068749;28;20346;-73
2022/06/20 12:25:47;;;;;;;2.90;1.60;;;;;;;28.07;30.11;96762.38;5068115;28;20200;-72
2022/06/20 12:28:45;;;;;;;2.70;1.53;;;;;;;27.87;30.33;96755.94;5067973;28;20198;-72
2022/06/20 12:31:23;;;;;;;1.60;1.33;;;;;;;27.65;31.34;96752.38;5066427;28;20212;-73
2022/06/20 12:33:52;;;;;;;4.80;1.60;;;;;;;27.86;30.51;96719.69;5067878;28;20199;-72
2022/06/20 12:36:22;;;;;;;2.30;1.70;;;;;;;28.12;29.96;96757.34;5067033;28;20213;-71
2022/06/20 12:39:03;;;;;;;1.50;1.40;;;;;;;27.80;30.44;96747.06;5067781;28;20593;-71
2022/06/20 12:41:40;;;;;;;2.13;1.77;;;;;;;28.31;29.88;96750.59;5068088;28;20201;-71
2022/06/20 12:44:18;;;;;;;2.17;1.40;;;;;;;28.09;30.10;96752.38;5066491;28;20230;-71
2022/06/20 12:47:18;;;;;;;2.43;1.90;;;;;;;27.67;30.86;96738.88;5067630;28;20197;-71
2022/06/20 12:50:12;;;;;;;2.47;1.80;;;;;;;28.04;30.00;96755.59;5067645;28;20204;-71
2022/06/20 12:53:09;;;;;;;1.73;1.60;;;;;;;28.33;29.66;96737.91;5065855;28;20233;-70
2022/06/20 12:56:25;;;;;;;1.87;1.63;;;;;;;28.09;29.25;96739.06;5067908;28;20228;-71
2022/06/20 12:59:13;;;;;;;1.60;1.50;;;;;;;27.90;29.87;96742.28;5067006;28;20209;-71
2022/06/20 13:02:10;;;;;;;2.77;1.80;;;;;;;27.97;30.05;96737.88;5066500;28;20201;-72
2022/06/20 13:05:01;;;;;;;2.53;1.90;;;;;;;28.21;29.52;96736.75;5031738;28;20262;-71
2022/06/20 13:08:07;;;;;;;4.50;2.50;;;;;;;28.38;29.87;96733.66;5048999;28;20224;-71
2022/06/20 13:10:46;;;;;;;3.37;1.80;;;;;;;28.80;28.24;96727.59;5026919;28;20196;-71
2022/06/20 13:13:32;;;;;;;1.90;1.80;;;;;;;28.89;28.38;96716.59;5067425;28;20193;-72
2022/06/20 13:16:17;;;;;;;3.10;1.90;;;;;;;28.80;29.39;96720.41;5067240;28;20306;-71